Rio Cuarto, Argentina

9:33 AM ART on September 20, 2014 (GMT -0300)
Area De Material | Change Station
CLOSE
Current Station
Airport
Location: Rio Cuarto,
Elevation: 1381 ft
Nearby Weather Stations

Elev 1381 ft 33.12 °S, 64.23 °W | Updated 33 minutes ago

Clear
Clear
54 °F
Feels Like 54 °F
N
2
Wind Variable Wind from West

Today
High -- | Low -- °F
--% Chance of Precip.
Yesterday
High -- | Low -- °F
Precip. -- in
7:09 AM 7:12 PM
Waning Crescent, 12% visible
Pressure 30.18 in
Visibility -9999.0 miles
Clouds
Dew Point 46 °F
Humidity 77%
Rainfall 0.00 in
Snow Depth Not available.
UV Not available.
Pollen Not available.
Air Quality Not available.
Flu Activity Not available.
METAR SAOC 201200Z 27002KT CAVOK 12/08 Q1022

More Conditions Fewer Conditions

Pressure 30.18 in
Visibility -9999.0 miles
Clouds
Dew Point 46 °F
Humidity 77%
Rainfall 0.00 in
Snow Depth Not available.
UV Not available.
Pollen Not available.
Air Quality Not available.
Flu Activity Not available.
METAR SAOC 201200Z 27002KT CAVOK 12/08 Q1022

More Conditions Fewer Conditions

10-Day Weather Forecast

Almanac

Astronomy

Sep. 20, 2014 Rise Set
Actual Time 7:09 AM ART 7:12 PM ART
Civil Twilight 6:44 AM ART 7:36 PM ART
Nautical Twilight 6:15 AM ART 8:05 PM ART
Astronomical Twilight 5:46 AM ART 8:34 PM ART
Moon 4:53 AM ART 4:12 PM ART
Length of Visible Light 12h 52m
Length of Day
12h 02m
Tomorrow will be 2m 2s longer.
Waning Crescent, 12% of the Moon is Illuminated
Today
Waning Crescent
Sep 24
New
Oct 1
First Quarter
Oct 8
Full
Oct 15
Last Quarter

Yesterday's Extremes

Country Highs Country Lows

Community

WunderPhotos

Upload Photos

1,754,840 photos uploaded!

Nearby

Snow Depth

Not available.

Earthquake Activity

City Distance Mag. Time & Date
No recent earthquake activity has been reported nearby.
Minimum magnitude displayed is 2.5.

Coastal Water Temperatures

Place Temperature
No Stations Reporting

Nearby Weather Stations